sensor_id;sensor_type;location;lat;lon;timestamp;P1;durP1;ratioP1;P2;durP2;ratioP2
55706;SDS011;41608;45.384;20.394;2023-05-07T00:01:14;8.07;;;5.80;;
55706;SDS011;41608;45.384;20.394;2023-05-07T00:03:40;9.73;;;6.15;;
55706;SDS011;41608;45.384;20.394;2023-05-07T00:06:06;7.03;;;5.28;;
55706;SDS011;41608;45.384;20.394;2023-05-07T00:08:38;8.02;;;5.80;;
55706;SDS011;41608;45.384;20.394;2023-05-07T00:11:04;6.72;;;5.63;;
55706;SDS011;41608;45.384;20.394;2023-05-07T00:13:30;10.45;;;5.78;;
55706;SDS011;41608;45.384;20.394;2023-05-07T00:16:04;7.18;;;4.97;;
55706;SDS011;41608;45.384;20.394;2023-05-07T00:18:30;6.70;;;4.72;;
55706;SDS011;41608;45.384;20.394;2023-05-07T00:21:00;7.05;;;6.00;;
55706;SDS011;41608;45.384;20.394;2023-05-07T00:23:26;7.07;;;5.57;;
55706;SDS011;41608;45.384;20.394;2023-05-07T00:25:53;8.30;;;5.50;;
55706;SDS011;41608;45.384;20.394;2023-05-07T00:28:19;10.00;;;5.63;;
55706;SDS011;41608;45.384;20.394;2023-05-07T00:30:45;8.52;;;4.95;;
55706;SDS011;41608;45.384;20.394;2023-05-07T00:33:11;7.03;;;5.78;;
55706;SDS011;41608;45.384;20.394;2023-05-07T00:35:37;7.32;;;5.00;;
55706;SDS011;41608;45.384;20.394;2023-05-07T00:38:03;9.63;;;6.13;;
55706;SDS011;41608;45.384;20.394;2023-05-07T00:40:29;6.28;;;4.82;;
55706;SDS011;41608;45.384;20.394;2023-05-07T00:43:01;8.43;;;5.20;;
55706;SDS011;41608;45.384;20.394;2023-05-07T00:45:27;7.30;;;5.35;;
55706;SDS011;41608;45.384;20.394;2023-05-07T00:47:54;6.38;;;5.10;;
55706;SDS011;41608;45.384;20.394;2023-05-07T00:50:20;8.98;;;6.05;;
55706;SDS011;41608;45.384;20.394;2023-05-07T00:52:47;5.70;;;4.63;;
55706;SDS011;41608;45.384;20.394;2023-05-07T00:55:13;6.20;;;5.05;;
55706;SDS011;41608;45.384;20.394;2023-05-07T00:57:40;7.00;;;5.07;;
55706;SDS011;41608;45.384;20.394;2023-05-07T01:00:09;9.32;;;6.00;;
55706;SDS011;41608;45.384;20.394;2023-05-07T01:02:38;7.78;;;6.10;;
55706;SDS011;41608;45.384;20.394;2023-05-07T01:05:05;11.88;;;7.00;;
55706;SDS011;41608;45.384;20.394;2023-05-07T01:07:34;7.32;;;5.70;;
55706;SDS011;41608;45.384;20.394;2023-05-07T01:10:00;8.10;;;5.70;;
55706;SDS011;41608;45.384;20.394;2023-05-07T01:12:27;10.00;;;6.38;;
55706;SDS011;41608;45.384;20.394;2023-05-07T01:14:54;9.00;;;5.00;;
55706;SDS011;41608;45.384;20.394;2023-05-07T01:17:20;10.23;;;5.53;;
55706;SDS011;41608;45.384;20.394;2023-05-07T01:19:46;14.35;;;7.53;;
55706;SDS011;41608;45.384;20.394;2023-05-07T01:22:13;9.48;;;5.93;;
55706;SDS011;41608;45.384;20.394;2023-05-07T01:24:41;8.57;;;6.10;;
55706;SDS011;41608;45.384;20.394;2023-05-07T01:27:07;7.15;;;5.68;;
55706;SDS011;41608;45.384;20.394;2023-05-07T01:29:33;7.53;;;5.05;;
55706;SDS011;41608;45.384;20.394;2023-05-07T01:32:01;9.95;;;6.57;;
55706;SDS011;41608;45.384;20.394;2023-05-07T01:34:30;7.20;;;6.05;;
55706;SDS011;41608;45.384;20.394;2023-05-07T01:36:57;8.43;;;6.32;;
55706;SDS011;41608;45.384;20.394;2023-05-07T01:39:27;11.35;;;6.85;;
55706;SDS011;41608;45.384;20.394;2023-05-07T01:41:54;9.73;;;6.05;;
55706;SDS011;41608;45.384;20.394;2023-05-07T01:44:21;9.73;;;5.55;;
55706;SDS011;41608;45.384;20.394;2023-05-07T01:46:50;7.75;;;5.72;;
55706;SDS011;41608;45.384;20.394;2023-05-07T01:49:19;7.15;;;6.10;;
55706;SDS011;41608;45.384;20.394;2023-05-07T01:51:45;10.88;;;5.63;;
55706;SDS011;41608;45.384;20.394;2023-05-07T01:54:11;7.10;;;5.28;;
55706;SDS011;41608;45.384;20.394;2023-05-07T01:56:40;7.80;;;5.30;;
55706;SDS011;41608;45.384;20.394;2023-05-07T01:59:06;9.85;;;6.25;;
55706;SDS011;41608;45.384;20.394;2023-05-07T02:01:32;6.65;;;5.95;;
55706;SDS011;41608;45.384;20.394;2023-05-07T02:03:59;9.73;;;5.75;;
55706;SDS011;41608;45.384;20.394;2023-05-07T02:06:25;6.82;;;5.82;;
55706;SDS011;41608;45.384;20.394;2023-05-07T02:08:53;7.55;;;5.65;;
55706;SDS011;41608;45.384;20.394;2023-05-07T02:11:19;10.07;;;5.47;;
55706;SDS011;41608;45.384;20.394;2023-05-07T02:13:45;10.90;;;6.00;;
55706;SDS011;41608;45.384;20.394;2023-05-07T02:16:12;9.32;;;6.03;;
55706;SDS011;41608;45.384;20.394;2023-05-07T02:18:39;9.30;;;5.93;;
55706;SDS011;41608;45.384;20.394;2023-05-07T02:21:05;7.47;;;5.78;;
55706;SDS011;41608;45.384;20.394;2023-05-07T02:23:31;8.38;;;6.93;;
55706;SDS011;41608;45.384;20.394;2023-05-07T02:26:05;9.57;;;6.15;;
55706;SDS011;41608;45.384;20.394;2023-05-07T02:28:31;10.35;;;6.28;;
55706;SDS011;41608;45.384;20.394;2023-05-07T02:31:00;11.45;;;6.32;;
55706;SDS011;41608;45.384;20.394;2023-05-07T02:33:26;7.97;;;5.90;;
55706;SDS011;41608;45.384;20.394;2023-05-07T02:35:52;15.55;;;7.55;;
55706;SDS011;41608;45.384;20.394;2023-05-07T02:38:23;10.38;;;7.38;;
55706;SDS011;41608;45.384;20.394;2023-05-07T02:40:49;8.13;;;6.93;;
55706;SDS011;41608;45.384;20.394;2023-05-07T02:43:17;9.82;;;7.28;;
55706;SDS011;41608;45.384;20.394;2023-05-07T02:45:43;9.60;;;7.20;;
55706;SDS011;41608;45.384;20.394;2023-05-07T02:48:09;10.73;;;6.90;;
55706;SDS011;41608;45.384;20.394;2023-05-07T02:50:38;7.78;;;6.05;;
55706;SDS011;41608;45.384;20.394;2023-05-07T02:53:04;11.20;;;7.05;;
55706;SDS011;41608;45.384;20.394;2023-05-07T02:55:30;8.60;;;7.10;;
55706;SDS011;41608;45.384;20.394;2023-05-07T02:57:56;8.20;;;6.70;;
55706;SDS011;41608;45.384;20.394;2023-05-07T03:00:25;13.38;;;7.18;;
55706;SDS011;41608;45.384;20.394;2023-05-07T03:02:51;11.35;;;6.93;;
55706;SDS011;41608;45.384;20.394;2023-05-07T03:05:17;11.02;;;7.57;;
55706;SDS011;41608;45.384;20.394;2023-05-07T03:07:43;9.15;;;6.50;;
55706;SDS011;41608;45.384;20.394;2023-05-07T03:10:11;11.90;;;8.43;;
55706;SDS011;41608;45.384;20.394;2023-05-07T03:12:37;8.70;;;7.35;;
55706;SDS011;41608;45.384;20.394;2023-05-07T03:15:03;9.93;;;7.40;;
55706;SDS011;41608;45.384;20.394;2023-05-07T03:17:29;12.25;;;6.82;;
55706;SDS011;41608;45.384;20.394;2023-05-07T03:19:55;9.23;;;7.43;;
55706;SDS011;41608;45.384;20.394;2023-05-07T03:22:24;12.30;;;8.32;;
55706;SDS011;41608;45.384;20.394;2023-05-07T03:24:50;12.55;;;7.15;;
55706;SDS011;41608;45.384;20.394;2023-05-07T03:27:16;13.88;;;6.57;;
55706;SDS011;41608;45.384;20.394;2023-05-07T03:29:43;18.25;;;8.27;;
55706;SDS011;41608;45.384;20.394;2023-05-07T03:32:09;9.02;;;6.47;;
55706;SDS011;41608;45.384;20.394;2023-05-07T03:34:35;9.95;;;7.78;;
55706;SDS011;41608;45.384;20.394;2023-05-07T03:37:03;11.30;;;6.53;;
55706;SDS011;41608;45.384;20.394;2023-05-07T03:39:32;9.23;;;6.85;;
55706;SDS011;41608;45.384;20.394;2023-05-07T03:41:58;9.30;;;6.90;;
55706;SDS011;41608;45.384;20.394;2023-05-07T03:44:24;11.82;;;6.68;;
55706;SDS011;41608;45.384;20.394;2023-05-07T03:46:50;12.02;;;6.30;;
55706;SDS011;41608;45.384;20.394;2023-05-07T03:49:16;10.38;;;6.63;;
55706;SDS011;41608;45.384;20.394;2023-05-07T03:51:45;11.93;;;7.55;;
55706;SDS011;41608;45.384;20.394;2023-05-07T03:54:16;8.88;;;6.63;;
55706;SDS011;41608;45.384;20.394;2023-05-07T03:56:45;11.32;;;6.72;;
55706;SDS011;41608;45.384;20.394;2023-05-07T03:59:12;11.20;;;6.90;;
55706;SDS011;41608;45.384;20.394;2023-05-07T04:01:38;9.57;;;7.32;;
55706;SDS011;41608;45.384;20.394;2023-05-07T04:04:05;9.15;;;6.93;;
55706;SDS011;41608;45.384;20.394;2023-05-07T04:06:31;9.95;;;7.15;;
55706;SDS011;41608;45.384;20.394;2023-05-07T04:08:57;13.90;;;7.85;;
55706;SDS011;41608;45.384;20.394;2023-05-07T04:11:23;13.43;;;7.85;;
55706;SDS011;41608;45.384;20.394;2023-05-07T04:13:50;9.68;;;7.80;;
55706;SDS011;41608;45.384;20.394;2023-05-07T04:16:18;11.10;;;7.00;;
55706;SDS011;41608;45.384;20.394;2023-05-07T04:18:44;8.27;;;7.35;;
55706;SDS011;41608;45.384;20.394;2023-05-07T04:21:14;8.70;;;7.53;;
55706;SDS011;41608;45.384;20.394;2023-05-07T04:23:40;9.90;;;6.95;;
55706;SDS011;41608;45.384;20.394;2023-05-07T04:26:06;9.30;;;6.63;;
55706;SDS011;41608;45.384;20.394;2023-05-07T04:28:33;10.18;;;7.65;;
55706;SDS011;41608;45.384;20.394;2023-05-07T04:30:59;21.10;;;8.68;;
55706;SDS011;41608;45.384;20.394;2023-05-07T04:33:26;12.27;;;8.00;;
55706;SDS011;41608;45.384;20.394;2023-05-07T04:35:58;12.57;;;7.22;;
55706;SDS011;41608;45.384;20.394;2023-05-07T04:38:27;9.50;;;6.95;;
55706;SDS011;41608;45.384;20.394;2023-05-07T04:41:02;10.10;;;6.85;;
55706;SDS011;41608;45.384;20.394;2023-05-07T04:43:29;7.63;;;6.82;;
55706;SDS011;41608;45.384;20.394;2023-05-07T04:45:55;7.45;;;6.53;;
55706;SDS011;41608;45.384;20.394;2023-05-07T04:48:21;12.45;;;7.13;;
55706;SDS011;41608;45.384;20.394;2023-05-07T04:50:48;9.43;;;7.55;;
55706;SDS011;41608;45.384;20.394;2023-05-07T04:53:14;16.30;;;7.40;;
55706;SDS011;41608;45.384;20.394;2023-05-07T04:55:40;12.63;;;6.82;;
55706;SDS011;41608;45.384;20.394;2023-05-07T04:58:07;9.63;;;7.03;;
55706;SDS011;41608;45.384;20.394;2023-05-07T05:00:35;10.38;;;6.53;;
55706;SDS011;41608;45.384;20.394;2023-05-07T05:03:01;7.60;;;6.72;;
55706;SDS011;41608;45.384;20.394;2023-05-07T05:05:27;7.28;;;6.20;;
55706;SDS011;41608;45.384;20.394;2023-05-07T05:07:54;10.38;;;7.15;;
55706;SDS011;41608;45.384;20.394;2023-05-07T05:10:20;8.75;;;6.75;;
55706;SDS011;41608;45.384;20.394;2023-05-07T05:12:46;11.27;;;7.68;;
55706;SDS011;41608;45.384;20.394;2023-05-07T05:15:15;10.13;;;6.40;;
55706;SDS011;41608;45.384;20.394;2023-05-07T05:17:41;15.77;;;7.57;;
55706;SDS011;41608;45.384;20.394;2023-05-07T05:20:07;14.20;;;6.90;;
55706;SDS011;41608;45.384;20.394;2023-05-07T05:22:35;13.70;;;7.00;;
55706;SDS011;41608;45.384;20.394;2023-05-07T05:25:01;17.00;;;8.35;;
55706;SDS011;41608;45.384;20.394;2023-05-07T05:27:28;11.05;;;6.90;;
55706;SDS011;41608;45.384;20.394;2023-05-07T05:29:54;12.05;;;7.22;;
55706;SDS011;41608;45.384;20.394;2023-05-07T05:32:20;10.68;;;7.55;;
55706;SDS011;41608;45.384;20.394;2023-05-07T05:34:47;12.65;;;7.78;;
55706;SDS011;41608;45.384;20.394;2023-05-07T05:37:13;9.50;;;6.68;;
55706;SDS011;41608;45.384;20.394;2023-05-07T05:39:39;8.98;;;7.18;;
55706;SDS011;41608;45.384;20.394;2023-05-07T05:42:06;10.75;;;6.72;;
55706;SDS011;41608;45.384;20.394;2023-05-07T05:44:32;6.95;;;6.15;;
55706;SDS011;41608;45.384;20.394;2023-05-07T05:46:58;10.25;;;7.15;;
55706;SDS011;41608;45.384;20.394;2023-05-07T05:49:24;10.23;;;6.70;;
55706;SDS011;41608;45.384;20.394;2023-05-07T05:51:51;13.10;;;6.00;;
55706;SDS011;41608;45.384;20.394;2023-05-07T05:54:17;9.52;;;6.53;;
55706;SDS011;41608;45.384;20.394;2023-05-07T05:56:43;15.00;;;6.00;;
55706;SDS011;41608;45.384;20.394;2023-05-07T05:59:09;11.25;;;5.72;;
55706;SDS011;41608;45.384;20.394;2023-05-07T06:01:38;8.68;;;6.13;;
55706;SDS011;41608;45.384;20.394;2023-05-07T06:04:04;13.18;;;5.85;;
55706;SDS011;41608;45.384;20.394;2023-05-07T06:06:30;15.27;;;6.53;;
55706;SDS011;41608;45.384;20.394;2023-05-07T06:08:59;8.77;;;6.05;;
55706;SDS011;41608;45.384;20.394;2023-05-07T06:11:25;15.80;;;7.13;;
55706;SDS011;41608;45.384;20.394;2023-05-07T06:13:51;11.90;;;5.63;;
55706;SDS011;41608;45.384;20.394;2023-05-07T06:16:17;9.13;;;5.30;;
55706;SDS011;41608;45.384;20.394;2023-05-07T06:18:43;9.80;;;5.60;;
55706;SDS011;41608;45.384;20.394;2023-05-07T06:21:11;11.25;;;5.78;;
55706;SDS011;41608;45.384;20.394;2023-05-07T06:23:40;9.88;;;5.65;;
55706;SDS011;41608;45.384;20.394;2023-05-07T06:26:06;8.73;;;6.13;;
55706;SDS011;41608;45.384;20.394;2023-05-07T06:28:38;8.43;;;5.32;;
55706;SDS011;41608;45.384;20.394;2023-05-07T06:31:13;8.80;;;4.85;;
55706;SDS011;41608;45.384;20.394;2023-05-07T06:33:39;10.82;;;4.70;;
55706;SDS011;41608;45.384;20.394;2023-05-07T06:36:06;9.55;;;4.53;;
55706;SDS011;41608;45.384;20.394;2023-05-07T06:38:37;9.00;;;4.72;;
55706;SDS011;41608;45.384;20.394;2023-05-07T06:41:03;8.13;;;5.18;;
55706;SDS011;41608;45.384;20.394;2023-05-07T06:43:29;11.05;;;4.63;;
55706;SDS011;41608;45.384;20.394;2023-05-07T06:45:55;7.40;;;4.25;;
55706;SDS011;41608;45.384;20.394;2023-05-07T06:48:21;7.60;;;4.63;;
55706;SDS011;41608;45.384;20.394;2023-05-07T06:50:47;9.82;;;5.03;;
55706;SDS011;41608;45.384;20.394;2023-05-07T06:53:13;8.73;;;4.25;;
55706;SDS011;41608;45.384;20.394;2023-05-07T06:55:42;6.43;;;4.38;;
55706;SDS011;41608;45.384;20.394;2023-05-07T06:58:08;14.02;;;4.10;;
55706;SDS011;41608;45.384;20.394;2023-05-07T07:00:34;8.23;;;4.32;;
55706;SDS011;41608;45.384;20.394;2023-05-07T07:03:01;10.38;;;5.13;;
55706;SDS011;41608;45.384;20.394;2023-05-07T07:05:29;9.07;;;4.85;;
55706;SDS011;41608;45.384;20.394;2023-05-07T07:07:58;11.10;;;4.68;;
55706;SDS011;41608;45.384;20.394;2023-05-07T07:10:24;6.85;;;4.15;;
55706;SDS011;41608;45.384;20.394;2023-05-07T07:12:50;7.22;;;4.32;;
55706;SDS011;41608;45.384;20.394;2023-05-07T07:15:17;9.95;;;4.40;;
55706;SDS011;41608;45.384;20.394;2023-05-07T07:17:45;10.20;;;4.15;;
55706;SDS011;41608;45.384;20.394;2023-05-07T07:20:11;7.50;;;4.25;;
55706;SDS011;41608;45.384;20.394;2023-05-07T07:22:41;9.38;;;4.72;;
55706;SDS011;41608;45.384;20.394;2023-05-07T07:25:07;8.77;;;4.60;;
55706;SDS011;41608;45.384;20.394;2023-05-07T07:27:36;6.68;;;4.55;;
55706;SDS011;41608;45.384;20.394;2023-05-07T07:30:05;7.82;;;4.75;;
55706;SDS011;41608;45.384;20.394;2023-05-07T07:32:34;11.68;;;4.88;;
55706;SDS011;41608;45.384;20.394;2023-05-07T07:35:05;8.85;;;4.25;;
55706;SDS011;41608;45.384;20.394;2023-05-07T07:37:34;11.43;;;5.07;;
55706;SDS011;41608;45.384;20.394;2023-05-07T07:40:05;7.05;;;4.63;;
55706;SDS011;41608;45.384;20.394;2023-05-07T07:42:31;7.45;;;4.53;;
55706;SDS011;41608;45.384;20.394;2023-05-07T07:45:00;8.60;;;4.20;;
55706;SDS011;41608;45.384;20.394;2023-05-07T07:47:29;8.48;;;5.43;;
55706;SDS011;41608;45.384;20.394;2023-05-07T07:49:58;8.50;;;3.90;;
55706;SDS011;41608;45.384;20.394;2023-05-07T07:52:24;7.50;;;4.47;;
55706;SDS011;41608;45.384;20.394;2023-05-07T07:54:50;7.68;;;4.13;;
55706;SDS011;41608;45.384;20.394;2023-05-07T07:57:16;9.63;;;4.38;;
55706;SDS011;41608;45.384;20.394;2023-05-07T07:59:45;6.13;;;4.35;;
55706;SDS011;41608;45.384;20.394;2023-05-07T08:02:11;8.48;;;4.80;;
55706;SDS011;41608;45.384;20.394;2023-05-07T08:04:37;6.32;;;4.03;;
55706;SDS011;41608;45.384;20.394;2023-05-07T08:07:03;5.90;;;4.40;;
55706;SDS011;41608;45.384;20.394;2023-05-07T08:09:30;8.75;;;4.10;;
55706;SDS011;41608;45.384;20.394;2023-05-07T08:11:57;7.82;;;4.10;;
55706;SDS011;41608;45.384;20.394;2023-05-07T08:14:26;7.13;;;3.92;;
55706;SDS011;41608;45.384;20.394;2023-05-07T08:16:53;8.00;;;4.00;;
55706;SDS011;41608;45.384;20.394;2023-05-07T08:19:22;6.97;;;3.75;;
55706;SDS011;41608;45.384;20.394;2023-05-07T08:21:51;8.90;;;4.30;;
55706;SDS011;41608;45.384;20.394;2023-05-07T08:24:20;9.60;;;4.60;;
55706;SDS011;41608;45.384;20.394;2023-05-07T08:26:46;14.43;;;5.50;;
55706;SDS011;41608;45.384;20.394;2023-05-07T08:29:12;6.85;;;3.78;;
55706;SDS011;41608;45.384;20.394;2023-05-07T08:31:38;5.30;;;4.15;;
55706;SDS011;41608;45.384;20.394;2023-05-07T08:34:09;10.27;;;5.18;;
55706;SDS011;41608;45.384;20.394;2023-05-07T08:36:40;5.15;;;4.35;;
55706;SDS011;41608;45.384;20.394;2023-05-07T08:39:07;6.28;;;3.97;;
55706;SDS011;41608;45.384;20.394;2023-05-07T08:41:40;9.68;;;4.03;;
55706;SDS011;41608;45.384;20.394;2023-05-07T08:44:11;7.35;;;4.18;;
55706;SDS011;41608;45.384;20.394;2023-05-07T08:46:38;6.50;;;4.28;;
55706;SDS011;41608;45.384;20.394;2023-05-07T08:49:05;5.35;;;3.65;;
55706;SDS011;41608;45.384;20.394;2023-05-07T08:51:31;7.10;;;4.07;;
55706;SDS011;41608;45.384;20.394;2023-05-07T08:53:58;11.95;;;4.07;;
55706;SDS011;41608;45.384;20.394;2023-05-07T08:56:25;8.55;;;4.97;;
55706;SDS011;41608;45.384;20.394;2023-05-07T08:58:51;9.80;;;4.22;;
55706;SDS011;41608;45.384;20.394;2023-05-07T09:01:23;7.57;;;4.70;;
55706;SDS011;41608;45.384;20.394;2023-05-07T09:03:53;9.48;;;4.45;;
55706;SDS011;41608;45.384;20.394;2023-05-07T09:06:26;8.70;;;3.17;;
55706;SDS011;41608;45.384;20.394;2023-05-07T09:08:55;8.63;;;3.58;;
55706;SDS011;41608;45.384;20.394;2023-05-07T09:11:22;6.10;;;3.78;;
55706;SDS011;41608;45.384;20.394;2023-05-07T09:13:52;11.20;;;3.83;;
55706;SDS011;41608;45.384;20.394;2023-05-07T09:16:20;4.00;;;3.17;;
55706;SDS011;41608;45.384;20.394;2023-05-07T09:18:46;5.50;;;3.33;;
55706;SDS011;41608;45.384;20.394;2023-05-07T09:21:16;5.30;;;3.38;;
55706;SDS011;41608;45.384;20.394;2023-05-07T09:23:42;10.63;;;4.13;;
55706;SDS011;41608;45.384;20.394;2023-05-07T09:26:08;7.82;;;3.70;;
55706;SDS011;41608;45.384;20.394;2023-05-07T09:28:43;4.93;;;3.78;;
55706;SDS011;41608;45.384;20.394;2023-05-07T09:31:11;7.60;;;3.75;;
55706;SDS011;41608;45.384;20.394;2023-05-07T09:33:38;4.40;;;3.00;;
55706;SDS011;41608;45.384;20.394;2023-05-07T09:36:07;9.82;;;4.13;;
55706;SDS011;41608;45.384;20.394;2023-05-07T09:38:33;8.70;;;4.13;;
55706;SDS011;41608;45.384;20.394;2023-05-07T09:43:32;8.27;;;4.15;;
55706;SDS011;41608;45.384;20.394;2023-05-07T09:46:01;5.45;;;3.70;;
55706;SDS011;41608;45.384;20.394;2023-05-07T09:48:28;5.68;;;3.40;;
55706;SDS011;41608;45.384;20.394;2023-05-07T09:51:01;9.15;;;4.47;;
55706;SDS011;41608;45.384;20.394;2023-05-07T09:53:29;9.57;;;3.53;;
55706;SDS011;41608;45.384;20.394;2023-05-07T09:55:56;5.63;;;3.20;;
55706;SDS011;41608;45.384;20.394;2023-05-07T09:58:23;7.20;;;4.90;;
55706;SDS011;41608;45.384;20.394;2023-05-07T10:00:52;4.93;;;3.35;;
55706;SDS011;41608;45.384;20.394;2023-05-07T10:03:18;6.35;;;3.95;;
55706;SDS011;41608;45.384;20.394;2023-05-07T10:05:50;14.70;;;4.35;;
55706;SDS011;41608;45.384;20.394;2023-05-07T10:08:16;6.70;;;3.70;;
55706;SDS011;41608;45.384;20.394;2023-05-07T10:10:45;10.27;;;4.22;;
55706;SDS011;41608;45.384;20.394;2023-05-07T10:13:14;6.65;;;3.35;;
55706;SDS011;41608;45.384;20.394;2023-05-07T10:15:41;8.23;;;3.67;;
55706;SDS011;41608;45.384;20.394;2023-05-07T10:18:07;4.93;;;3.53;;
55706;SDS011;41608;45.384;20.394;2023-05-07T10:20:34;6.72;;;3.50;;
55706;SDS011;41608;45.384;20.394;2023-05-07T10:23:03;5.22;;;3.90;;
55706;SDS011;41608;45.384;20.394;2023-05-07T10:25:31;5.47;;;3.80;;
55706;SDS011;41608;45.384;20.394;2023-05-07T10:27:59;9.20;;;4.00;;
55706;SDS011;41608;45.384;20.394;2023-05-07T10:30:30;8.50;;;4.50;;
55706;SDS011;41608;45.384;20.394;2023-05-07T10:32:59;9.38;;;3.80;;
55706;SDS011;41608;45.384;20.394;2023-05-07T10:35:31;8.60;;;4.15;;
55706;SDS011;41608;45.384;20.394;2023-05-07T10:37:58;4.25;;;3.42;;
55706;SDS011;41608;45.384;20.394;2023-05-07T10:40:24;7.95;;;4.00;;
55706;SDS011;41608;45.384;20.394;2023-05-07T10:43:00;7.22;;;4.47;;
55706;SDS011;41608;45.384;20.394;2023-05-07T10:45:27;4.65;;;2.88;;
55706;SDS011;41608;45.384;20.394;2023-05-07T10:48:12;6.43;;;3.42;;
55706;SDS011;41608;45.384;20.394;2023-05-07T10:50:39;9.20;;;6.22;;
55706;SDS011;41608;45.384;20.394;2023-05-07T10:55:45;6.78;;;4.13;;
55706;SDS011;41608;45.384;20.394;2023-05-07T11:03:20;6.97;;;3.42;;
55706;SDS011;41608;45.384;20.394;2023-05-07T11:06:08;8.32;;;4.20;;
55706;SDS011;41608;45.384;20.394;2023-05-07T11:11:18;8.82;;;3.80;;
55706;SDS011;41608;45.384;20.394;2023-05-07T11:13:47;5.60;;;3.55;;
55706;SDS011;41608;45.384;20.394;2023-05-07T11:16:17;4.15;;;2.88;;
55706;SDS011;41608;45.384;20.394;2023-05-07T11:18:47;8.45;;;4.10;;
55706;SDS011;41608;45.384;20.394;2023-05-07T11:21:31;5.90;;;3.92;;
55706;SDS011;41608;45.384;20.394;2023-05-07T11:24:00;4.60;;;3.05;;
55706;SDS011;41608;45.384;20.394;2023-05-07T11:26:27;6.32;;;3.15;;
55706;SDS011;41608;45.384;20.394;2023-05-07T11:28:54;7.15;;;3.10;;
55706;SDS011;41608;45.384;20.394;2023-05-07T11:31:25;6.90;;;3.20;;
55706;SDS011;41608;45.384;20.394;2023-05-07T11:33:53;6.03;;;3.28;;
55706;SDS011;41608;45.384;20.394;2023-05-07T11:36:21;4.00;;;2.95;;
55706;SDS011;41608;45.384;20.394;2023-05-07T11:38:47;3.67;;;2.70;;
55706;SDS011;41608;45.384;20.394;2023-05-07T11:41:15;6.45;;;2.40;;
55706;SDS011;41608;45.384;20.394;2023-05-07T11:43:55;5.28;;;3.10;;
55706;SDS011;41608;45.384;20.394;2023-05-07T11:46:21;9.45;;;3.55;;
55706;SDS011;41608;45.384;20.394;2023-05-07T11:48:47;9.35;;;3.05;;
55706;SDS011;41608;45.384;20.394;2023-05-07T11:51:19;5.50;;;3.70;;
55706;SDS011;41608;45.384;20.394;2023-05-07T11:53:46;4.43;;;3.17;;
55706;SDS011;41608;45.384;20.394;2023-05-07T11:56:13;6.28;;;3.50;;
55706;SDS011;41608;45.384;20.394;2023-05-07T11:58:39;6.70;;;3.20;;
55706;SDS011;41608;45.384;20.394;2023-05-07T12:01:07;6.50;;;2.83;;
55706;SDS011;41608;45.384;20.394;2023-05-07T12:03:34;4.50;;;3.20;;
55706;SDS011;41608;45.384;20.394;2023-05-07T12:06:05;7.03;;;3.10;;
55706;SDS011;41608;45.384;20.394;2023-05-07T12:08:31;7.50;;;3.60;;
55706;SDS011;41608;45.384;20.394;2023-05-07T12:10:58;6.32;;;3.83;;
55706;SDS011;41608;45.384;20.394;2023-05-07T12:13:25;5.53;;;2.75;;
55706;SDS011;41608;45.384;20.394;2023-05-07T12:15:52;5.40;;;3.40;;
55706;SDS011;41608;45.384;20.394;2023-05-07T12:18:18;5.22;;;3.50;;
55706;SDS011;41608;45.384;20.394;2023-05-07T12:20:44;6.00;;;3.00;;
55706;SDS011;41608;45.384;20.394;2023-05-07T12:23:14;8.50;;;3.08;;
55706;SDS011;41608;45.384;20.394;2023-05-07T12:25:41;8.90;;;3.47;;
55706;SDS011;41608;45.384;20.394;2023-05-07T12:28:15;4.47;;;2.97;;
55706;SDS011;41608;45.384;20.394;2023-05-07T12:30:44;4.07;;;3.10;;
55706;SDS011;41608;45.384;20.394;2023-05-07T12:33:10;6.93;;;4.40;;
55706;SDS011;41608;45.384;20.394;2023-05-07T12:35:40;4.88;;;3.33;;
55706;SDS011;41608;45.384;20.394;2023-05-07T12:38:10;4.57;;;2.85;;
55706;SDS011;41608;45.384;20.394;2023-05-07T12:40:41;3.88;;;3.05;;
55706;SDS011;41608;45.384;20.394;2023-05-07T12:43:07;5.95;;;3.60;;
55706;SDS011;41608;45.384;20.394;2023-05-07T12:45:37;14.05;;;3.97;;
55706;SDS011;41608;45.384;20.394;2023-05-07T12:48:11;6.47;;;3.42;;
55706;SDS011;41608;45.384;20.394;2023-05-07T12:50:38;5.53;;;3.60;;
55706;SDS011;41608;45.384;20.394;2023-05-07T12:53:09;3.63;;;2.65;;
55706;SDS011;41608;45.384;20.394;2023-05-07T12:55:46;3.83;;;2.90;;
55706;SDS011;41608;45.384;20.394;2023-05-07T12:58:17;7.10;;;3.17;;
55706;SDS011;41608;45.384;20.394;2023-05-07T13:00:44;7.50;;;4.05;;
55706;SDS011;41608;45.384;20.394;2023-05-07T13:03:20;4.25;;;2.85;;
55706;SDS011;41608;45.384;20.394;2023-05-07T13:05:46;4.97;;;2.83;;
55706;SDS011;41608;45.384;20.394;2023-05-07T13:08:13;5.60;;;3.05;;
55706;SDS011;41608;45.384;20.394;2023-05-07T13:10:51;6.55;;;3.58;;
55706;SDS011;41608;45.384;20.394;2023-05-07T13:13:18;5.22;;;3.50;;
55706;SDS011;41608;45.384;20.394;2023-05-07T13:15:47;5.40;;;3.20;;
55706;SDS011;41608;45.384;20.394;2023-05-07T13:18:13;6.57;;;3.45;;
55706;SDS011;41608;45.384;20.394;2023-05-07T13:20:40;4.30;;;2.85;;
55706;SDS011;41608;45.384;20.394;2023-05-07T13:23:08;6.72;;;3.13;;
55706;SDS011;41608;45.384;20.394;2023-05-07T13:25:34;8.90;;;3.60;;
55706;SDS011;41608;45.384;20.394;2023-05-07T13:28:03;4.72;;;3.28;;
55706;SDS011;41608;45.384;20.394;2023-05-07T13:30:32;4.22;;;2.90;;
55706;SDS011;41608;45.384;20.394;2023-05-07T13:32:58;4.18;;;2.50;;
55706;SDS011;41608;45.384;20.394;2023-05-07T13:35:27;5.10;;;3.00;;
55706;SDS011;41608;45.384;20.394;2023-05-07T13:37:53;7.57;;;3.35;;
55706;SDS011;41608;45.384;20.394;2023-05-07T13:40:21;4.60;;;2.97;;
55706;SDS011;41608;45.384;20.394;2023-05-07T13:42:47;4.70;;;2.67;;
55706;SDS011;41608;45.384;20.394;2023-05-07T13:45:14;4.70;;;2.75;;
55706;SDS011;41608;45.384;20.394;2023-05-07T13:47:40;6.57;;;2.80;;
55706;SDS011;41608;45.384;20.394;2023-05-07T13:50:10;6.80;;;2.92;;
55706;SDS011;41608;45.384;20.394;2023-05-07T13:52:44;6.88;;;3.33;;
55706;SDS011;41608;45.384;20.394;2023-05-07T13:55:20;5.18;;;2.80;;
55706;SDS011;41608;45.384;20.394;2023-05-07T13:57:46;5.00;;;2.60;;
55706;SDS011;41608;45.384;20.394;2023-05-07T14:00:13;9.05;;;3.88;;
55706;SDS011;41608;45.384;20.394;2023-05-07T14:02:41;4.57;;;2.53;;
55706;SDS011;41608;45.384;20.394;2023-05-07T14:05:07;3.88;;;3.03;;
55706;SDS011;41608;45.384;20.394;2023-05-07T14:07:34;5.55;;;3.20;;
55706;SDS011;41608;45.384;20.394;2023-05-07T14:10:07;6.18;;;3.70;;
55706;SDS011;41608;45.384;20.394;2023-05-07T14:12:34;5.22;;;3.00;;
55706;SDS011;41608;45.384;20.394;2023-05-07T14:15:00;5.50;;;3.30;;
55706;SDS011;41608;45.384;20.394;2023-05-07T14:17:26;7.47;;;2.90;;
55706;SDS011;41608;45.384;20.394;2023-05-07T14:19:55;6.05;;;3.47;;
55706;SDS011;41608;45.384;20.394;2023-05-07T14:22:21;5.38;;;3.05;;
55706;SDS011;41608;45.384;20.394;2023-05-07T14:24:47;5.43;;;3.50;;
55706;SDS011;41608;45.384;20.394;2023-05-07T14:27:14;5.03;;;3.22;;
55706;SDS011;41608;45.384;20.394;2023-05-07T14:29:40;3.78;;;3.13;;
55706;SDS011;41608;45.384;20.394;2023-05-07T14:32:07;3.55;;;2.92;;
55706;SDS011;41608;45.384;20.394;2023-05-07T14:34:33;5.20;;;2.88;;
55706;SDS011;41608;45.384;20.394;2023-05-07T14:37:00;7.32;;;2.83;;
55706;SDS011;41608;45.384;20.394;2023-05-07T14:39:26;6.38;;;3.15;;
55706;SDS011;41608;45.384;20.394;2023-05-07T14:41:52;4.28;;;2.55;;
55706;SDS011;41608;45.384;20.394;2023-05-07T14:44:21;5.50;;;3.15;;
55706;SDS011;41608;45.384;20.394;2023-05-07T14:46:47;5.68;;;3.53;;